Time;durP1;ratioP1;P1;durP2;ratioP2;P2;SDS_P1;SDS_P2;PMS_P1;PMS_P2;Temp;Humidity;BMP_temperature;BMP_pressure;BME280_temperature;BME280_humidity;BME280_pressure;Samples;Min_cycle;Max_cycle;Signal;HPM_P1;HPM_P2
2022/06/07 00:00:32;;;;;;;24.27;11.67;;;13.40;99.90;;;;;;4992700;28;20315;-86
2022/06/07 00:02:59;;;;;;;17.50;10.40;;;13.40;99.90;;;;;;4992640;28;20224;-85
2022/06/07 00:05:29;;;;;;;21.17;10.97;;;13.50;99.90;;;;;;4993445;28;20927;-85
2022/06/07 00:07:56;;;;;;;14.77;9.90;;;13.50;99.90;;;;;;4993534;28;20210;-87
2022/06/07 00:10:25;;;;;;;18.57;11.20;;;13.50;99.90;;;;;;4993118;28;20589;-85
2022/06/07 00:12:52;;;;;;;15.00;9.20;;;13.50;99.90;;;;;;4958329;28;20288;-88
2022/06/07 00:15:21;;;;;;;15.93;9.30;;;13.50;99.90;;;;;;4955578;28;20292;-88
2022/06/07 00:17:48;;;;;;;12.53;8.03;;;13.50;99.90;;;;;;4957519;29;20216;-85
2022/06/07 00:20:15;;;;;;;11.03;8.10;;;13.60;99.90;;;;;;4956951;29;20235;-85
2022/06/07 00:22:42;;;;;;;18.77;10.87;;;13.60;99.90;;;;;;4956429;29;20288;-84
2022/06/07 00:25:12;;;;;;;12.90;9.50;;;13.60;99.90;;;;;;4958600;28;20673;-84
2022/06/07 00:27:41;;;;;;;25.83;11.33;;;13.60;99.90;;;;;;4957632;29;20197;-87
2022/06/07 00:30:11;;;;;;;17.50;10.33;;;13.60;99.90;;;;;;4970357;28;20259;-87
2022/06/07 00:32:39;;;;;;;14.27;10.07;;;13.60;99.90;;;;;;4977077;28;20705;-86
2022/06/07 00:35:07;;;;;;;20.63;11.33;;;13.70;99.90;;;;;;4969638;28;20817;-86
2022/06/07 00:37:34;;;;;;;20.73;10.00;;;13.70;99.90;;;;;;4956543;29;20533;-85
2022/06/07 00:40:01;;;;;;;16.47;10.57;;;13.70;99.90;;;;;;4955606;29;20237;-86
2022/06/07 00:42:28;;;;;;;18.10;11.90;;;13.70;99.90;;;;;;4983557;28;20210;-84
2022/06/07 00:44:56;;;;;;;17.13;12.00;;;13.70;99.90;;;;;;4997185;28;20619;-86
2022/06/07 00:47:26;;;;;;;19.53;12.83;;;13.70;99.90;;;;;;4989725;28;20219;-84
2022/06/07 00:50:05;;;;;;;20.30;13.57;;;13.80;99.90;;;;;;4989781;28;20312;-87
2022/06/07 00:52:34;;;;;;;21.00;13.47;;;13.80;99.90;;;;;;4989787;28;20223;-85
2022/06/07 00:55:02;;;;;;;20.27;13.57;;;13.80;99.90;;;;;;4992444;28;20257;-84
2022/06/07 00:57:29;;;;;;;21.90;13.40;;;13.80;99.90;;;;;;4992786;28;20230;-94
2022/06/07 00:59:58;;;;;;;25.57;14.70;;;13.80;99.90;;;;;;4996129;28;20247;-90
2022/06/07 01:02:25;;;;;;;22.63;15.20;;;13.80;99.90;;;;;;4993239;28;20539;-82
2022/06/07 01:04:52;;;;;;;20.50;14.47;;;13.70;99.90;;;;;;4991833;28;20573;-85
2022/06/07 01:12:49;;;;;;;21.53;15.13;;;13.90;99.90;;;;;;4982758;28;20200;-86
2022/06/07 01:15:17;;;;;;;19.00;14.07;;;13.90;99.90;;;;;;4974299;28;20251;-86
2022/06/07 01:17:44;;;;;;;14.53;12.53;;;13.90;99.90;;;;;;4977110;28;20208;-85
2022/06/07 01:20:12;;;;;;;18.97;13.17;;;13.90;99.90;;;;;;4973410;28;20295;-84
2022/06/07 01:22:41;;;;;;;17.77;13.60;;;13.80;99.90;;;;;;4974442;28;20207;-87
2022/06/07 01:25:09;;;;;;;17.70;12.63;;;13.80;99.90;;;;;;4973353;28;20251;-86
2022/06/07 01:27:36;;;;;;;20.03;13.20;;;13.80;99.90;;;;;;4976664;28;20217;-85
2022/06/07 01:30:04;;;;;;;15.23;13.00;;;13.80;99.90;;;;;;4975509;28;20642;-84
2022/06/07 01:32:31;;;;;;;19.03;13.03;;;13.80;99.90;;;;;;4961292;28;20227;-84
2022/06/07 01:34:58;;;;;;;21.17;13.10;;;13.80;99.90;;;;;;4958982;29;20202;-87
2022/06/07 01:37:25;;;;;;;15.70;12.97;;;13.80;99.90;;;;;;4979892;28;20235;-84
2022/06/07 01:42:52;;;;;;;20.47;13.43;;;13.90;99.90;;;;;;4930392;29;20675;-87
2022/06/07 01:45:20;;;;;;;24.67;13.57;;;13.90;99.90;;;;;;4917780;29;20213;-85
2022/06/07 01:47:47;;;;;;;21.73;13.40;;;14.00;99.90;;;;;;4944019;28;20200;-82
2022/06/07 01:50:14;;;;;;;19.50;12.77;;;13.90;99.90;;;;;;4976135;28;20239;-87
2022/06/07 01:52:40;;;;;;;19.17;12.73;;;13.90;99.90;;;;;;4996804;28;20242;-84
2022/06/07 01:55:09;;;;;;;21.67;12.77;;;14.00;99.90;;;;;;4996207;28;20279;-85
2022/06/07 01:57:36;;;;;;;19.60;12.90;;;13.90;99.90;;;;;;4997881;28;20264;-83
2022/06/07 02:00:06;;;;;;;18.43;13.63;;;13.90;99.90;;;;;;4993907;28;20215;-86
2022/06/07 02:02:33;;;;;;;22.70;13.67;;;14.00;99.90;;;;;;4997422;28;20208;-88
2022/06/07 02:05:00;;;;;;;18.03;14.23;;;14.00;99.90;;;;;;4995564;28;20315;-88
2022/06/07 02:07:27;;;;;;;20.00;14.13;;;13.90;99.90;;;;;;4994506;28;20310;-86
2022/06/07 02:09:54;;;;;;;16.87;13.10;;;13.90;99.90;;;;;;4968438;28;20216;-87
2022/06/07 02:12:22;;;;;;;18.33;13.67;;;13.90;99.90;;;;;;4955156;28;20594;-86
2022/06/07 02:14:49;;;;;;;23.70;13.10;;;13.90;99.90;;;;;;4974363;28;20568;-87
2022/06/07 02:17:17;;;;;;;17.20;12.77;;;13.90;99.90;;;;;;4974773;28;20575;-88
2022/06/07 02:19:44;;;;;;;27.90;15.47;;;13.90;99.90;;;;;;4975304;28;20287;-89
2022/06/07 02:22:11;;;;;;;18.83;13.60;;;14.00;99.90;;;;;;4974345;28;20530;-88
2022/06/07 02:24:38;;;;;;;23.13;14.03;;;13.90;99.90;;;;;;4974524;28;20410;-87
2022/06/07 02:27:09;;;;;;;20.97;14.43;;;14.00;99.90;;;;;;4974336;28;20299;-86
2022/06/07 02:29:41;;;;;;;20.73;13.17;;;14.00;99.90;;;;;;4974528;28;20727;-88
2022/06/07 02:32:13;;;;;;;17.47;12.33;;;14.00;99.90;;;;;;4974280;28;20279;-91
2022/06/07 02:34:41;;;;;;;15.53;12.17;;;14.00;99.90;;;;;;4973593;28;20207;-87
2022/06/07 02:37:11;;;;;;;17.77;12.17;;;13.90;99.90;;;;;;4979106;28;20585;-88
2022/06/07 02:39:39;;;;;;;24.00;13.33;;;14.00;99.90;;;;;;4992374;28;20218;-88
2022/06/07 02:42:08;;;;;;;20.23;12.83;;;14.00;99.90;;;;;;4990630;28;20227;-89
2022/06/07 02:44:37;;;;;;;19.87;12.13;;;14.00;99.90;;;;;;4987659;28;20207;-90
2022/06/07 02:47:05;;;;;;;20.30;13.13;;;13.90;99.90;;;;;;4972794;28;20815;-88
2022/06/07 02:49:32;;;;;;;22.33;13.40;;;14.00;99.90;;;;;;4971022;28;20213;-85
2022/06/07 02:51:59;;;;;;;19.90;12.37;;;14.00;99.90;;;;;;4971551;28;20220;-86
2022/06/07 02:54:26;;;;;;;14.17;10.57;;;14.00;99.90;;;;;;4970182;28;20263;-85
2022/06/07 02:56:52;;;;;;;23.07;12.10;;;14.00;99.90;;;;;;4989089;28;20532;-84
2022/06/07 02:59:19;;;;;;;18.10;12.33;;;14.00;99.90;;;;;;4983118;28;20204;-85
2022/06/07 03:01:48;;;;;;;15.00;11.03;;;14.00;99.90;;;;;;4971336;28;20319;-84
2022/06/07 03:04:14;;;;;;;18.30;11.80;;;14.00;99.90;;;;;;4969491;28;20214;-87
2022/06/07 03:06:41;;;;;;;19.60;11.73;;;14.00;99.90;;;;;;4970606;28;20309;-88
2022/06/07 03:09:08;;;;;;;17.37;11.87;;;14.10;99.90;;;;;;4970570;28;20205;-88
2022/06/07 03:11:35;;;;;;;18.20;11.17;;;14.10;99.90;;;;;;4971527;28;20201;-87
2022/06/07 03:14:02;;;;;;;13.17;10.93;;;14.00;99.90;;;;;;4985906;28;20627;-86
2022/06/07 03:16:29;;;;;;;15.53;10.60;;;14.00;99.90;;;;;;4990512;28;20204;-84
2022/06/07 03:18:57;;;;;;;15.77;11.90;;;14.00;99.90;;;;;;4989997;28;20227;-84
2022/06/07 03:21:24;;;;;;;17.63;11.30;;;14.00;99.90;;;;;;4990601;28;20223;-87
2022/06/07 03:23:51;;;;;;;18.20;10.70;;;14.00;99.90;;;;;;4957981;28;20302;-87
2022/06/07 03:26:18;;;;;;;18.27;11.73;;;14.10;99.90;;;;;;4952860;29;20728;-87
2022/06/07 03:28:45;;;;;;;18.97;12.63;;;14.00;99.90;;;;;;4970626;28;20599;-88
2022/06/07 03:31:14;;;;;;;19.10;12.10;;;14.10;99.90;;;;;;4971720;28;20570;-87
2022/06/07 03:33:42;;;;;;;20.37;13.30;;;14.00;99.90;;;;;;4965714;28;20220;-88
2022/06/07 03:36:14;;;;;;;20.03;11.43;;;14.10;99.90;;;;;;4946240;29;20566;-87
2022/06/07 03:38:41;;;;;;;19.30;12.10;;;14.10;99.90;;;;;;4961129;28;20643;-88
2022/06/07 03:41:09;;;;;;;16.83;10.90;;;14.10;99.90;;;;;;4970955;28;20324;-84
2022/06/07 03:43:37;;;;;;;20.10;11.20;;;14.10;99.90;;;;;;4971883;28;20209;-86
2022/06/07 03:46:09;;;;;;;21.10;11.07;;;14.10;99.90;;;;;;4972172;28;20193;-88
2022/06/07 03:48:36;;;;;;;16.63;12.03;;;14.00;99.90;;;;;;4985933;28;20213;-86
2022/06/07 03:51:04;;;;;;;20.80;12.13;;;14.00;99.90;;;;;;4991234;28;20200;-87
2022/06/07 03:53:32;;;;;;;15.70;11.57;;;14.00;99.90;;;;;;4991426;28;20304;-90
2022/06/07 03:56:00;;;;;;;16.67;11.70;;;14.10;99.90;;;;;;4991173;28;20259;-92
2022/06/07 03:58:27;;;;;;;16.00;11.30;;;14.10;99.90;;;;;;4971905;28;20220;-90
2022/06/07 04:00:57;;;;;;;12.80;10.07;;;14.10;99.90;;;;;;4972295;28;20224;-86
2022/06/07 04:03:24;;;;;;;14.07;11.23;;;14.10;99.90;;;;;;4971685;28;20208;-86
2022/06/07 04:05:51;;;;;;;20.50;12.33;;;14.10;99.90;;;;;;4975977;28;20228;-89
2022/06/07 04:08:19;;;;;;;17.17;11.43;;;14.10;99.90;;;;;;4974010;28;20204;-88
2022/06/07 04:10:49;;;;;;;17.90;10.27;;;14.10;99.90;;;;;;4973935;28;20244;-85
2022/06/07 04:13:17;;;;;;;19.93;12.00;;;14.10;99.90;;;;;;4975436;28;20328;-90
2022/06/07 04:15:44;;;;;;;17.20;11.63;;;14.20;99.90;;;;;;4975782;28;20216;-87
2022/06/07 04:18:12;;;;;;;21.23;12.63;;;14.10;99.90;;;;;;4975051;28;20291;-89
2022/06/07 04:20:39;;;;;;;21.20;12.10;;;14.20;99.90;;;;;;4974811;28;20283;-86
2022/06/07 04:23:07;;;;;;;18.93;13.20;;;14.10;99.90;;;;;;4970637;28;20868;-91
2022/06/07 04:25:35;;;;;;;19.57;12.63;;;14.10;99.90;;;;;;4956112;29;20288;-89
2022/06/07 04:28:04;;;;;;;19.13;13.73;;;14.10;99.90;;;;;;4956599;29;20547;-86
2022/06/07 04:30:32;;;;;;;18.17;12.50;;;14.10;99.90;;;;;;4966728;28;20699;-87
2022/06/07 04:33:00;;;;;;;24.33;13.27;;;14.10;99.90;;;;;;4974440;28;20221;-87
2022/06/07 04:35:27;;;;;;;23.80;13.77;;;14.10;99.90;;;;;;4974619;28;20610;-89
2022/06/07 04:37:55;;;;;;;19.30;11.40;;;14.20;99.90;;;;;;4975577;28;20211;-86
2022/06/07 04:40:22;;;;;;;15.60;12.07;;;14.20;99.90;;;;;;4975735;28;20647;-83
2022/06/07 04:42:49;;;;;;;16.33;10.67;;;14.30;99.90;;;;;;4966519;28;20229;-91
2022/06/07 04:45:18;;;;;;;16.07;11.03;;;14.30;99.90;;;;;;4957277;29;20250;-93
2022/06/07 04:47:46;;;;;;;14.97;11.40;;;14.30;99.90;;;;;;4956664;29;20208;-86
2022/06/07 04:50:16;;;;;;;17.80;11.53;;;14.40;99.90;;;;;;4967887;28;20229;-88
2022/06/07 04:52:44;;;;;;;16.07;10.97;;;14.40;99.90;;;;;;4975349;28;20597;-89
2022/06/07 04:55:12;;;;;;;15.27;10.50;;;14.50;99.90;;;;;;4974969;28;20343;-88
2022/06/07 04:57:39;;;;;;;17.17;10.97;;;14.50;99.90;;;;;;4976393;28;20275;-92
2022/06/07 05:00:09;;;;;;;16.07;11.00;;;14.50;99.90;;;;;;4975784;28;20215;-88
2022/06/07 05:02:37;;;;;;;14.03;10.77;;;14.50;99.90;;;;;;4976859;28;20224;-88
2022/06/07 05:05:05;;;;;;;15.70;11.10;;;14.60;99.90;;;;;;4974258;28;20212;-89
2022/06/07 05:07:32;;;;;;;19.07;11.10;;;14.60;99.90;;;;;;4978893;28;20211;-87
2022/06/07 05:10:01;;;;;;;17.00;9.83;;;14.60;99.90;;;;;;4996492;28;20218;-89
2022/06/07 05:12:30;;;;;;;19.03;10.77;;;14.60;99.90;;;;;;4991628;28;20236;-94
2022/06/07 05:14:57;;;;;;;16.93;10.07;;;14.70;99.90;;;;;;4975386;28;20204;-94
2022/06/07 05:17:24;;;;;;;17.83;10.23;;;14.60;99.90;;;;;;4974155;28;20896;-89
2022/06/07 05:19:52;;;;;;;17.50;10.13;;;14.60;99.90;;;;;;4975460;28;20573;-88
2022/06/07 05:22:19;;;;;;;15.33;9.97;;;14.60;99.90;;;;;;4974084;28;20236;-89
2022/06/07 05:24:46;;;;;;;19.13;10.57;;;14.60;99.90;;;;;;4974304;28;20209;-92
2022/06/07 05:27:19;;;;;;;16.77;10.43;;;14.50;99.90;;;;;;4973831;28;20272;-89
2022/06/07 05:29:49;;;;;;;16.17;9.90;;;14.50;99.90;;;;;;4973984;28;20652;-88
2022/06/07 05:32:17;;;;;;;16.53;10.90;;;14.50;99.90;;;;;;4959759;28;20201;-89
2022/06/07 05:34:44;;;;;;;19.70;11.07;;;14.40;99.90;;;;;;4957369;28;20213;-93
2022/06/07 05:37:15;;;;;;;18.23;10.47;;;14.40;99.90;;;;;;4973865;28;20664;-86
2022/06/07 05:39:42;;;;;;;19.73;12.20;;;14.50;99.90;;;;;;4974140;28;20714;-89
2022/06/07 05:42:10;;;;;;;20.97;11.87;;;14.40;99.90;;;;;;4971323;28;20633;-91
2022/06/07 05:44:37;;;;;;;18.83;12.00;;;14.40;99.90;;;;;;4971505;28;20220;-89
2022/06/07 05:47:05;;;;;;;17.90;11.30;;;14.40;99.90;;;;;;4974824;28;20193;-85
2022/06/07 05:49:32;;;;;;;18.80;11.43;;;14.40;99.90;;;;;;4974310;28;20211;-91
2022/06/07 05:52:01;;;;;;;19.00;11.13;;;14.40;99.90;;;;;;4975615;28;20309;-92
2022/06/07 05:54:31;;;;;;;18.57;11.00;;;14.40;99.90;;;;;;4959171;28;20224;-90
2022/06/07 05:56:58;;;;;;;20.40;11.53;;;14.40;99.90;;;;;;4954915;28;20241;-91
2022/06/07 05:59:25;;;;;;;19.53;10.93;;;14.40;99.90;;;;;;4974601;28;20277;-88
2022/06/07 06:01:52;;;;;;;16.43;11.93;;;14.40;99.90;;;;;;4975293;28;20311;-89
2022/06/07 06:04:20;;;;;;;18.97;11.93;;;14.40;99.90;;;;;;4974787;28;20208;-93
2022/06/07 06:06:51;;;;;;;17.87;11.20;;;14.40;99.90;;;;;;4978116;28;20226;-94
2022/06/07 06:12:05;;;;;;;18.67;11.43;;;14.50;99.90;;;;;;4979827;28;20192;-94
2022/06/07 06:14:33;;;;;;;22.23;12.33;;;14.50;99.90;;;;;;4982627;28;20244;-89
2022/06/07 06:17:00;;;;;;;18.53;12.47;;;14.50;99.90;;;;;;4975576;28;20563;-92
2022/06/07 06:19:26;;;;;;;15.93;11.37;;;14.60;99.90;;;;;;4974756;28;20273;-86
2022/06/07 06:21:55;;;;;;;19.23;11.60;;;14.60;99.90;;;;;;4974829;28;20220;-92
2022/06/07 06:24:23;;;;;;;26.00;14.40;;;14.60;99.90;;;;;;4973286;28;20637;-94
2022/06/07 06:26:51;;;;;;;17.50;12.17;;;14.70;99.90;;;;;;4971608;28;20247;-89
2022/06/07 06:29:20;;;;;;;18.23;11.93;;;14.70;99.90;;;;;;4973618;28;20216;-89
2022/06/07 06:31:50;;;;;;;17.00;10.43;;;14.70;99.90;;;;;;4978497;28;20570;-89
2022/06/07 06:34:17;;;;;;;19.50;12.27;;;14.70;99.90;;;;;;4972018;23;20248;-90
2022/06/07 06:36:45;;;;;;;16.20;10.73;;;14.70;99.90;;;;;;4956295;28;20244;-93
2022/06/07 06:39:13;;;;;;;20.97;11.93;;;14.70;99.90;;;;;;4958087;23;20244;-93
2022/06/07 06:41:45;;;;;;;22.20;10.60;;;14.80;99.90;;;;;;4955560;29;20539;-87
2022/06/07 06:44:14;;;;;;;22.40;12.73;;;14.90;99.90;;;;;;4955078;29;20220;-94
2022/06/07 06:46:45;;;;;;;19.70;11.10;;;15.00;99.90;;;;;;4955262;29;20201;-93
2022/06/07 06:49:14;;;;;;;16.80;10.57;;;15.00;99.90;;;;;;4955316;29;20292;-91
2022/06/07 06:51:42;;;;;;;17.50;10.23;;;15.10;99.90;;;;;;4954260;29;20217;-90
2022/06/07 06:54:12;;;;;;;17.27;10.50;;;15.10;99.90;;;;;;4956423;29;20208;-89
2022/06/07 06:56:40;;;;;;;15.87;8.17;;;15.10;99.90;;;;;;4951864;29;20602;-88
2022/06/07 06:59:08;;;;;;;14.20;7.37;;;15.10;99.90;;;;;;4953384;29;20229;-84
2022/06/07 07:01:40;;;;;;;16.60;7.80;;;15.00;99.90;;;;;;4931359;29;20283;-88
2022/06/07 07:04:16;;;;;;;17.33;7.27;;;15.00;99.90;;;;;;4955517;23;20241;-88
2022/06/07 07:06:49;;;;;;;14.30;7.43;;;15.00;99.90;;;;;;4934039;29;20227;-94
2022/06/07 07:09:19;;;;;;;12.33;6.50;;;15.00;99.90;;;;;;4933513;29;20225;-90
2022/06/07 07:11:49;;;;;;;12.23;6.63;;;15.00;99.90;;;;;;4933555;29;20314;-91
2022/06/07 07:14:15;;;;;;;9.13;5.93;;;15.00;99.90;;;;;;4933146;29;20221;-88
2022/06/07 07:16:47;;;;;;;11.53;6.57;;;15.10;99.90;;;;;;4935417;29;20265;-89
2022/06/07 07:19:16;;;;;;;15.03;6.83;;;15.10;99.90;;;;;;4933472;29;20346;-90
2022/06/07 07:21:46;;;;;;;14.37;7.43;;;15.20;99.90;;;;;;4933248;29;20209;-91
2022/06/07 07:24:21;;;;;;;10.63;5.87;;;15.10;99.90;;;;;;4933338;29;20368;-91
2022/06/07 07:26:49;;;;;;;11.57;5.83;;;15.10;99.90;;;;;;4933007;29;20268;-86
2022/06/07 07:29:21;;;;;;;12.67;6.20;;;15.10;99.90;;;;;;4933559;29;20492;-90
2022/06/07 07:31:48;;;;;;;14.33;6.33;;;15.00;99.90;;;;;;4934921;29;20670;-94
2022/06/07 07:34:18;;;;;;;15.43;7.20;;;15.10;99.90;;;;;;4932905;29;20320;-89
2022/06/07 07:36:51;;;;;;;14.00;6.47;;;15.20;99.90;;;;;;4943562;23;20250;-89
2022/06/07 07:39:21;;;;;;;15.70;6.30;;;15.30;99.90;;;;;;4913765;29;20222;-92
2022/06/07 07:41:51;;;;;;;13.03;6.40;;;15.30;99.90;;;;;;4919053;29;20249;-91
2022/06/07 07:44:20;;;;;;;14.97;5.37;;;15.30;99.90;;;;;;4917305;29;20222;-89
2022/06/07 07:46:48;;;;;;;9.57;5.13;;;15.30;99.90;;;;;;4917632;29;20277;-89
2022/06/07 07:49:18;;;;;;;9.83;5.27;;;15.30;99.90;;;;;;4919453;29;20214;-89
2022/06/07 07:51:47;;;;;;;9.83;5.17;;;15.20;99.90;;;;;;4918866;29;20863;-89
2022/06/07 07:54:17;;;;;;;9.17;5.47;;;15.10;99.90;;;;;;4921626;29;20301;-89
2022/06/07 07:56:46;;;;;;;11.53;5.10;;;15.10;99.90;;;;;;4916900;29;20554;-88
2022/06/07 07:59:16;;;;;;;15.33;5.50;;;15.10;99.90;;;;;;4918880;29;20227;-93
2022/06/07 08:01:44;;;;;;;11.13;5.33;;;15.10;99.90;;;;;;4918713;29;20290;-91
2022/06/07 08:04:12;;;;;;;13.90;6.40;;;15.10;99.90;;;;;;4915680;29;20272;-85
2022/06/07 08:06:41;;;;;;;13.03;5.00;;;15.10;99.90;;;;;;4919498;29;20230;-87
2022/06/07 08:09:10;;;;;;;11.07;4.43;;;15.10;99.90;;;;;;4919946;29;20215;-91
2022/06/07 08:11:39;;;;;;;10.70;4.47;;;15.20;99.90;;;;;;4919962;29;20262;-90
2022/06/07 08:14:08;;;;;;;10.07;4.18;;;15.30;99.90;;;;;;4918898;29;20539;-89
2022/06/07 08:16:36;;;;;;;11.10;4.07;;;15.40;99.90;;;;;;4918889;29;20569;-93
2022/06/07 08:19:04;;;;;;;8.03;3.73;;;15.60;99.90;;;;;;4917302;29;20226;-92
2022/06/07 08:21:31;;;;;;;8.65;4.18;;;15.70;99.90;;;;;;4922142;29;20207;-86
2022/06/07 08:23:59;;;;;;;9.77;4.35;;;15.80;99.90;;;;;;4911826;29;20692;-89
2022/06/07 08:26:28;;;;;;;8.23;3.80;;;15.80;99.90;;;;;;4910891;29;20225;-90
2022/06/07 08:28:59;;;;;;;9.27;4.10;;;15.90;99.90;;;;;;4930979;29;20233;-87
2022/06/07 08:31:29;;;;;;;9.65;4.03;;;16.00;99.90;;;;;;4938642;29;20198;-84
2022/06/07 08:39:27;;;;;;;6.68;3.45;;;16.10;99.90;;;;;;4934948;29;20201;-86
2022/06/07 08:41:57;;;;;;;11.13;4.27;;;16.20;99.90;;;;;;4934908;29;20198;-84
2022/06/07 08:44:29;;;;;;;10.80;3.90;;;16.20;99.90;;;;;;4933301;29;20245;-85
2022/06/07 08:47:02;;;;;;;7.57;3.95;;;16.40;99.90;;;;;;4932760;29;20210;-86
2022/06/07 08:49:30;;;;;;;11.40;4.13;;;16.50;99.90;;;;;;4913133;29;20278;-88
2022/06/07 08:52:03;;;;;;;8.03;4.10;;;16.60;99.90;;;;;;4915954;29;20207;-87
2022/06/07 08:54:37;;;;;;;9.85;3.55;;;16.70;99.90;;;;;;4920823;29;20261;-86
2022/06/07 08:57:16;;;;;;;8.45;3.35;;;16.90;99.90;;;;;;4934961;29;20205;-86
2022/06/07 08:59:46;;;;;;;6.75;2.85;;;17.00;99.90;;;;;;4931647;29;20210;-89
2022/06/07 09:02:28;;;;;;;10.85;3.30;;;17.40;99.90;;;;;;4930692;29;20927;-86
2022/06/07 09:04:56;;;;;;;10.10;3.22;;;17.80;99.90;;;;;;4922812;29;20491;-88
2022/06/07 09:07:24;;;;;;;9.05;3.28;;;18.20;99.90;;;;;;4912455;29;20222;-85
2022/06/07 09:12:55;;;;;;;7.35;2.88;;;18.40;99.90;;;;;;4936072;29;20205;-88
2022/06/07 09:15:26;;;;;;;6.22;3.53;;;18.10;99.90;;;;;;4935784;29;20668;-87
2022/06/07 09:17:58;;;;;;;10.70;3.38;;;18.00;99.90;;;;;;4936030;29;20202;-86
2022/06/07 09:20:27;;;;;;;10.43;3.78;;;18.20;99.90;;;;;;4935946;29;20301;-86
2022/06/07 09:22:58;;;;;;;11.25;3.50;;;18.40;99.90;;;;;;4935592;29;20229;-85
2022/06/07 09:25:30;;;;;;;7.40;2.85;;;18.60;99.90;;;;;;4918877;29;20213;-87
2022/06/07 09:27:58;;;;;;;9.15;3.60;;;18.60;99.90;;;;;;4918208;29;20316;-86
2022/06/07 09:30:28;;;;;;;7.03;3.47;;;18.60;99.90;;;;;;4916777;29;20275;-87
2022/06/07 09:32:55;;;;;;;11.07;4.38;;;18.60;99.90;;;;;;4916779;29;20206;-86
2022/06/07 09:35:37;;;;;;;9.70;4.05;;;18.50;99.90;;;;;;4914049;29;20226;-85
2022/06/07 09:38:07;;;;;;;11.30;3.92;;;18.50;99.90;;;;;;4942866;29;20288;-87
2022/06/07 09:40:38;;;;;;;11.95;5.10;;;18.50;99.90;;;;;;4955107;29;20236;-91
2022/06/07 09:43:09;;;;;;;7.65;4.03;;;18.60;99.90;;;;;;4928707;29;20585;-87
2022/06/07 09:45:39;;;;;;;6.35;3.58;;;18.60;99.90;;;;;;4927097;29;20225;-84
2022/06/07 09:48:30;;;;;;;10.45;3.70;;;18.50;99.90;;;;;;4933047;29;20221;-86
2022/06/07 09:51:03;;;;;;;8.13;3.78;;;18.50;99.90;;;;;;4934110;29;20629;-86
2022/06/07 09:53:35;;;;;;;6.90;3.63;;;18.50;99.90;;;;;;4937633;29;20241;-84
2022/06/07 09:56:19;;;;;;;12.40;4.20;;;18.50;99.90;;;;;;4933978;29;20650;-88
2022/06/07 09:58:56;;;;;;;9.05;3.78;;;18.40;99.90;;;;;;4932946;29;20929;-87
2022/06/07 10:01:31;;;;;;;9.55;3.92;;;18.20;99.90;;;;;;4931181;29;20221;-86
2022/06/07 10:04:05;;;;;;;8.50;4.22;;;18.10;99.90;;;;;;4932618;29;20231;-87
2022/06/07 10:06:35;;;;;;;10.73;4.20;;;18.00;99.90;;;;;;4932837;29;20300;-87
2022/06/07 10:09:25;;;;;;;6.22;3.88;;;18.00;99.90;;;;;;4934391;29;20265;-87
2022/06/07 10:12:05;;;;;;;10.38;4.50;;;18.10;99.90;;;;;;4917150;29;20284;-88
2022/06/07 10:14:40;;;;;;;8.77;4.35;;;18.00;99.90;;;;;;4933407;29;20314;-87
2022/06/07 10:17:44;;;;;;;8.35;4.13;;;17.90;99.90;;;;;;4931797;29;20224;-85
2022/06/07 10:20:22;;;;;;;7.82;3.72;;;17.90;99.90;;;;;;4938105;29;20597;-87
2022/06/07 10:23:20;;;;;;;8.70;4.07;;;17.80;99.90;;;;;;4953819;29;20217;-86
2022/06/07 10:25:59;;;;;;;6.75;4.10;;;17.70;99.90;;;;;;4954261;29;20196;-93
2022/06/07 10:28:35;;;;;;;9.10;4.18;;;17.60;99.90;;;;;;4950179;29;20233;-87
2022/06/07 10:31:09;;;;;;;7.68;4.57;;;17.60;99.90;;;;;;4938087;29;20316;-91
2022/06/07 10:33:47;;;;;;;9.82;4.60;;;17.60;99.90;;;;;;4954847;29;20279;-88
2022/06/07 10:36:30;;;;;;;11.63;5.70;;;17.70;99.90;;;;;;4941577;29;20241;-92
2022/06/07 10:39:11;;;;;;;8.77;5.75;;;17.90;99.90;;;;;;4935945;29;20206;-89
2022/06/07 10:41:46;;;;;;;11.02;6.32;;;17.80;99.90;;;;;;4935604;29;20265;-88
2022/06/07 10:44:30;;;;;;;10.10;6.32;;;17.80;99.90;;;;;;4934499;29;20347;-87
2022/06/07 10:47:01;;;;;;;9.05;6.28;;;17.90;99.90;;;;;;4935233;29;20198;-92
2022/06/07 10:49:36;;;;;;;11.35;7.70;;;18.00;99.90;;;;;;4934923;29;20213;-89
2022/06/07 10:52:21;;;;;;;11.10;6.28;;;18.10;99.90;;;;;;4932901;29;20473;-87
2022/06/07 10:55:01;;;;;;;9.68;6.75;;;18.30;99.90;;;;;;4934153;29;20232;-85
2022/06/07 10:57:38;;;;;;;12.57;6.97;;;18.50;99.90;;;;;;4934361;29;20297;-90
2022/06/07 11:00:24;;;;;;;9.93;6.03;;;18.50;99.90;;;;;;4935672;29;20206;-90
2022/06/07 11:03:00;;;;;;;10.02;6.25;;;18.70;99.90;;;;;;4933830;29;20214;-83
2022/06/07 11:11:12;;;;;;;7.32;5.57;;;19.20;99.90;;;;;;4954775;29;20188;-88
2022/06/07 11:13:46;;;;;;;10.10;5.70;;;19.60;99.90;;;;;;4953239;29;20553;-90
2022/06/07 11:16:21;;;;;;;6.32;4.80;;;19.70;99.90;;;;;;4952988;29;20507;-90
2022/06/07 11:18:48;;;;;;;7.95;4.93;;;19.90;99.90;;;;;;4953452;29;20276;-93
2022/06/07 11:21:31;;;;;;;9.27;5.90;;;19.80;99.90;;;;;;4954191;29;20795;-88
2022/06/07 11:24:05;;;;;;;8.60;5.22;;;19.80;99.90;;;;;;4969021;28;20229;-91
2022/06/07 11:26:39;;;;;;;8.18;5.65;;;19.80;99.90;;;;;;4968165;28;20502;-90
2022/06/07 11:29:10;;;;;;;9.60;6.07;;;20.00;99.90;;;;;;4953959;29;20613;-92
2022/06/07 11:31:43;;;;;;;10.40;6.55;;;20.30;99.90;;;;;;4953543;29;20650;-95
2022/06/07 11:34:20;;;;;;;9.40;5.45;;;20.30;99.90;;;;;;4952970;29;20279;-90
2022/06/07 11:36:47;;;;;;;8.45;5.55;;;20.40;99.90;;;;;;4966081;28;20251;-88
2022/06/07 11:39:31;;;;;;;9.10;5.20;;;20.50;99.90;;;;;;4968341;28;20209;-91
2022/06/07 11:42:20;;;;;;;7.18;5.70;;;20.70;99.90;;;;;;4953339;29;20204;-89
2022/06/07 11:45:20;;;;;;;9.05;5.30;;;20.60;99.90;;;;;;4949235;29;20236;-89
2022/06/07 11:48:17;;;;;;;11.10;5.18;;;20.50;99.90;;;;;;4952050;29;20644;-92
2022/06/07 11:50:53;;;;;;;7.72;5.38;;;20.60;99.90;;;;;;4951218;29;20618;-91
2022/06/07 11:53:25;;;;;;;11.30;5.45;;;20.80;99.90;;;;;;4952407;28;20237;-90
2022/06/07 11:56:02;;;;;;;7.57;5.18;;;20.80;99.90;;;;;;4972917;28;20196;-92
2022/06/07 11:58:51;;;;;;;8.10;5.20;;;21.00;99.90;;;;;;4973803;28;20283;-96
2022/06/07 12:01:39;;;;;;;8.50;5.25;;;21.20;99.90;;;;;;4935398;29;20210;-90
2022/06/07 12:04:43;;;;;;;11.02;4.97;;;21.30;99.90;;;;;;4937251;29;20230;-91
2022/06/07 12:07:19;;;;;;;8.82;5.35;;;21.20;99.90;;;;;;4951837;29;20205;-93
2022/06/07 12:09:51;;;;;;;8.02;4.75;;;21.20;99.90;;;;;;4954607;28;20561;-90
2022/06/07 12:12:22;;;;;;;5.97;4.68;;;21.20;99.90;;;;;;4972896;28;20208;-94
2022/06/07 12:14:52;;;;;;;7.28;5.20;;;21.40;99.90;;;;;;4972817;28;20287;-92
2022/06/07 12:17:26;;;;;;;6.40;4.50;;;21.40;99.90;;;;;;4972482;28;20244;-89
2022/06/07 12:19:53;;;;;;;11.05;6.50;;;21.50;99.90;;;;;;4953890;29;20594;-90
2022/06/07 12:22:24;;;;;;;8.70;5.78;;;21.70;99.90;;;;;;4954002;29;20478;-92
2022/06/07 12:24:55;;;;;;;12.27;7.00;;;21.80;99.90;;;;;;4953395;28;20248;-91
2022/06/07 12:27:29;;;;;;;9.02;5.60;;;21.70;99.90;;;;;;4956402;29;20882;-91
2022/06/07 12:30:01;;;;;;;9.65;5.93;;;21.90;99.90;;;;;;4955442;29;20388;-91
2022/06/07 12:32:32;;;;;;;7.65;5.60;;;22.20;99.90;;;;;;4956129;29;21009;-90
2022/06/07 12:35:14;;;;;;;9.00;5.78;;;22.20;99.90;;;;;;4956810;29;20212;-91
2022/06/07 12:37:47;;;;;;;7.75;6.15;;;22.10;99.90;;;;;;4956378;28;20233;-88
2022/06/07 12:40:49;;;;;;;8.35;6.22;;;21.80;99.90;;;;;;4955784;29;20217;-87
2022/06/07 12:43:26;;;;;;;10.20;7.43;;;21.60;99.90;;;;;;4956003;29;20228;-88
2022/06/07 12:46:00;;;;;;;11.07;6.50;;;21.40;99.90;;;;;;4956477;29;20646;-90
2022/06/07 12:48:38;;;;;;;12.02;6.43;;;21.30;99.90;;;;;;4952354;29;20209;-91
2022/06/07 12:51:21;;;;;;;10.00;6.85;;;21.30;99.90;;;;;;4955772;29;20547;-87
2022/06/07 12:53:51;;;;;;;10.57;6.07;;;21.20;99.90;;;;;;4955714;29;20237;-91
2022/06/07 12:56:20;;;;;;;11.60;5.20;;;21.40;99.90;;;;;;4954458;29;20257;-90
2022/06/07 12:58:50;;;;;;;6.45;5.47;;;21.60;99.90;;;;;;4955440;29;20686;-91
2022/06/07 13:01:23;;;;;;;9.15;5.82;;;21.70;99.90;;;;;;4954097;29;20208;-92
2022/06/07 13:03:56;;;;;;;6.60;5.45;;;21.40;99.90;;;;;;4947495;29;20233;-91
2022/06/07 13:06:23;;;;;;;9.70;5.55;;;21.20;99.90;;;;;;4955898;29;20288;-86
2022/06/07 13:09:01;;;;;;;7.82;6.15;;;21.30;99.90;;;;;;4954737;29;20657;-86
2022/06/07 13:11:38;;;;;;;8.05;6.15;;;21.30;99.90;;;;;;4954581;29;20304;-89
2022/06/07 13:14:07;;;;;;;10.57;7.00;;;20.70;99.90;;;;;;4955329;29;20660;-89
2022/06/07 13:16:42;;;;;;;9.70;7.07;;;20.50;99.90;;;;;;4954805;29;20610;-83